sensor_id;sensor_type;location;lat;lon;timestamp;P1;durP1;ratioP1;P2;durP2;ratioP2
3573;SDS011;1801;51.050;6.246;2022-11-25T00:01:08;9.47;;;2.80;;
3573;SDS011;1801;51.050;6.246;2022-11-25T00:03:33;20.52;;;4.18;;
3573;SDS011;1801;51.050;6.246;2022-11-25T00:06:09;17.87;;;2.20;;
3573;SDS011;1801;51.050;6.246;2022-11-25T00:08:35;12.43;;;2.42;;
3573;SDS011;1801;51.050;6.246;2022-11-25T00:11:00;8.63;;;2.40;;
3573;SDS011;1801;51.050;6.246;2022-11-25T00:13:26;8.10;;;2.70;;
3573;SDS011;1801;51.050;6.246;2022-11-25T00:15:51;13.93;;;2.70;;
3573;SDS011;1801;51.050;6.246;2022-11-25T00:18:16;7.80;;;2.23;;
3573;SDS011;1801;51.050;6.246;2022-11-25T00:20:41;13.27;;;3.20;;
3573;SDS011;1801;51.050;6.246;2022-11-25T00:23:07;12.83;;;2.20;;
3573;SDS011;1801;51.050;6.246;2022-11-25T00:25:32;12.30;;;2.03;;
3573;SDS011;1801;51.050;6.246;2022-11-25T00:27:57;20.10;;;6.03;;
3573;SDS011;1801;51.050;6.246;2022-11-25T00:30:23;12.47;;;2.90;;
3573;SDS011;1801;51.050;6.246;2022-11-25T00:32:48;10.50;;;2.63;;
3573;SDS011;1801;51.050;6.246;2022-11-25T00:35:13;8.93;;;2.70;;
3573;SDS011;1801;51.050;6.246;2022-11-25T00:37:38;8.70;;;3.60;;
3573;SDS011;1801;51.050;6.246;2022-11-25T00:40:04;11.97;;;2.27;;
3573;SDS011;1801;51.050;6.246;2022-11-25T00:42:29;4.70;;;2.00;;
3573;SDS011;1801;51.050;6.246;2022-11-25T00:45:23;9.07;;;2.45;;
3573;SDS011;1801;51.050;6.246;2022-11-25T00:47:49;7.80;;;2.70;;
3573;SDS011;1801;51.050;6.246;2022-11-25T00:50:14;14.27;;;4.70;;
3573;SDS011;1801;51.050;6.246;2022-11-25T00:52:39;11.50;;;2.23;;
3573;SDS011;1801;51.050;6.246;2022-11-25T00:55:05;19.23;;;3.40;;
3573;SDS011;1801;51.050;6.246;2022-11-25T00:57:30;17.83;;;3.23;;
3573;SDS011;1801;51.050;6.246;2022-11-25T00:59:55;11.70;;;2.37;;
3573;SDS011;1801;51.050;6.246;2022-11-25T01:02:21;15.43;;;2.80;;
3573;SDS011;1801;51.050;6.246;2022-11-25T01:04:46;7.00;;;2.27;;
3573;SDS011;1801;51.050;6.246;2022-11-25T01:07:11;8.47;;;2.63;;
3573;SDS011;1801;51.050;6.246;2022-11-25T01:09:37;8.73;;;2.40;;
3573;SDS011;1801;51.050;6.246;2022-11-25T01:12:02;12.30;;;2.73;;
3573;SDS011;1801;51.050;6.246;2022-11-25T01:14:27;13.53;;;3.60;;
3573;SDS011;1801;51.050;6.246;2022-11-25T01:16:53;6.87;;;2.60;;
3573;SDS011;1801;51.050;6.246;2022-11-25T01:19:18;12.83;;;2.80;;
3573;SDS011;1801;51.050;6.246;2022-11-25T01:21:44;12.80;;;3.00;;
3573;SDS011;1801;51.050;6.246;2022-11-25T01:24:10;24.00;;;7.87;;
3573;SDS011;1801;51.050;6.246;2022-11-25T01:26:36;28.60;;;9.10;;
3573;SDS011;1801;51.050;6.246;2022-11-25T01:29:02;29.40;;;9.33;;
3573;SDS011;1801;51.050;6.246;2022-11-25T01:31:29;51.25;;;17.60;;
3573;SDS011;1801;51.050;6.246;2022-11-25T01:34:05;29.02;;;9.35;;
3573;SDS011;1801;51.050;6.246;2022-11-25T01:36:30;42.97;;;7.78;;
3573;SDS011;1801;51.050;6.246;2022-11-25T01:38:57;19.60;;;6.20;;
3573;SDS011;1801;51.050;6.246;2022-11-25T01:41:24;21.30;;;6.40;;
3573;SDS011;1801;51.050;6.246;2022-11-25T01:44:03;27.80;;;7.93;;
3573;SDS011;1801;51.050;6.246;2022-11-25T01:46:30;20.35;;;6.13;;
3573;SDS011;1801;51.050;6.246;2022-11-25T01:49:00;13.25;;;4.40;;
3573;SDS011;1801;51.050;6.246;2022-11-25T01:51:39;12.38;;;4.57;;
3573;SDS011;1801;51.050;6.246;2022-11-25T01:54:05;11.13;;;3.00;;
3573;SDS011;1801;51.050;6.246;2022-11-25T01:56:32;17.10;;;3.20;;
3573;SDS011;1801;51.050;6.246;2022-11-25T01:58:59;11.93;;;1.98;;
3573;SDS011;1801;51.050;6.246;2022-11-25T02:01:24;16.20;;;4.77;;
3573;SDS011;1801;51.050;6.246;2022-11-25T02:03:50;21.07;;;3.40;;
3573;SDS011;1801;51.050;6.246;2022-11-25T02:06:27;17.97;;;3.97;;
3573;SDS011;1801;51.050;6.246;2022-11-25T02:09:14;13.30;;;2.15;;
3573;SDS011;1801;51.050;6.246;2022-11-25T02:11:39;15.75;;;3.40;;
3573;SDS011;1801;51.050;6.246;2022-11-25T02:14:06;12.25;;;2.80;;
3573;SDS011;1801;51.050;6.246;2022-11-25T02:16:32;9.93;;;3.10;;
3573;SDS011;1801;51.050;6.246;2022-11-25T02:18:57;17.73;;;3.03;;
3573;SDS011;1801;51.050;6.246;2022-11-25T02:21:37;13.90;;;2.57;;
3573;SDS011;1801;51.050;6.246;2022-11-25T02:24:10;11.35;;;3.70;;
3573;SDS011;1801;51.050;6.246;2022-11-25T02:26:38;13.50;;;2.50;;
3573;SDS011;1801;51.050;6.246;2022-11-25T02:29:03;12.97;;;3.67;;
3573;SDS011;1801;51.050;6.246;2022-11-25T02:31:29;7.60;;;2.77;;
3573;SDS011;1801;51.050;6.246;2022-11-25T02:33:54;12.77;;;3.40;;
3573;SDS011;1801;51.050;6.246;2022-11-25T02:36:20;10.23;;;2.40;;
3573;SDS011;1801;51.050;6.246;2022-11-25T02:41:13;10.50;;;3.13;;
3573;SDS011;1801;51.050;6.246;2022-11-25T02:43:40;9.25;;;2.92;;
3573;SDS011;1801;51.050;6.246;2022-11-25T02:46:07;10.80;;;2.30;;
3573;SDS011;1801;51.050;6.246;2022-11-25T02:48:33;10.57;;;1.98;;
3573;SDS011;1801;51.050;6.246;2022-11-25T02:50:58;13.23;;;2.20;;
3573;SDS011;1801;51.050;6.246;2022-11-25T02:53:24;11.13;;;3.10;;
3573;SDS011;1801;51.050;6.246;2022-11-25T02:55:49;4.47;;;1.80;;
3573;SDS011;1801;51.050;6.246;2022-11-25T02:58:14;11.37;;;2.77;;
3573;SDS011;1801;51.050;6.246;2022-11-25T03:00:40;12.30;;;3.07;;
3573;SDS011;1801;51.050;6.246;2022-11-25T03:03:06;11.98;;;2.70;;
3573;SDS011;1801;51.050;6.246;2022-11-25T03:05:32;9.53;;;2.00;;
3573;SDS011;1801;51.050;6.246;2022-11-25T03:07:57;10.77;;;2.67;;
3573;SDS011;1801;51.050;6.246;2022-11-25T03:10:23;12.93;;;4.97;;
3573;SDS011;1801;51.050;6.246;2022-11-25T03:12:48;11.90;;;2.10;;
3573;SDS011;1801;51.050;6.246;2022-11-25T03:15:13;17.00;;;3.07;;
3573;SDS011;1801;51.050;6.246;2022-11-25T03:17:39;6.70;;;2.57;;
3573;SDS011;1801;51.050;6.246;2022-11-25T03:20:05;5.33;;;2.10;;
3573;SDS011;1801;51.050;6.246;2022-11-25T03:22:31;7.03;;;2.37;;
3573;SDS011;1801;51.050;6.246;2022-11-25T03:24:56;9.93;;;1.97;;
3573;SDS011;1801;51.050;6.246;2022-11-25T03:27:21;10.73;;;2.27;;
3573;SDS011;1801;51.050;6.246;2022-11-25T03:29:46;6.60;;;2.53;;
3573;SDS011;1801;51.050;6.246;2022-11-25T03:32:12;14.50;;;1.90;;
3573;SDS011;1801;51.050;6.246;2022-11-25T03:34:37;6.80;;;1.80;;
3573;SDS011;1801;51.050;6.246;2022-11-25T03:37:02;8.33;;;1.43;;
3573;SDS011;1801;51.050;6.246;2022-11-25T03:39:27;10.63;;;1.97;;
3573;SDS011;1801;51.050;6.246;2022-11-25T03:41:53;9.00;;;3.10;;
3573;SDS011;1801;51.050;6.246;2022-11-25T03:44:18;8.17;;;2.30;;
3573;SDS011;1801;51.050;6.246;2022-11-25T03:46:43;8.97;;;3.73;;
3573;SDS011;1801;51.050;6.246;2022-11-25T03:49:08;7.40;;;2.20;;
3573;SDS011;1801;51.050;6.246;2022-11-25T03:51:33;10.80;;;2.20;;
3573;SDS011;1801;51.050;6.246;2022-11-25T03:53:59;7.47;;;2.80;;
3573;SDS011;1801;51.050;6.246;2022-11-25T03:56:24;6.20;;;2.43;;
3573;SDS011;1801;51.050;6.246;2022-11-25T03:58:49;11.00;;;2.17;;
3573;SDS011;1801;51.050;6.246;2022-11-25T04:01:14;17.10;;;2.57;;
3573;SDS011;1801;51.050;6.246;2022-11-25T04:03:40;3.70;;;2.50;;
3573;SDS011;1801;51.050;6.246;2022-11-25T04:06:05;9.87;;;2.13;;
3573;SDS011;1801;51.050;6.246;2022-11-25T04:08:30;13.47;;;2.20;;
3573;SDS011;1801;51.050;6.246;2022-11-25T04:10:55;24.30;;;3.00;;
3573;SDS011;1801;51.050;6.246;2022-11-25T04:13:21;8.97;;;2.27;;
3573;SDS011;1801;51.050;6.246;2022-11-25T04:15:46;11.97;;;3.50;;
3573;SDS011;1801;51.050;6.246;2022-11-25T04:18:13;9.45;;;2.92;;
3573;SDS011;1801;51.050;6.246;2022-11-25T04:20:38;8.60;;;2.70;;
3573;SDS011;1801;51.050;6.246;2022-11-25T04:23:03;19.57;;;3.47;;
3573;SDS011;1801;51.050;6.246;2022-11-25T04:25:30;20.60;;;2.88;;
3573;SDS011;1801;51.050;6.246;2022-11-25T04:27:55;10.63;;;2.50;;
3573;SDS011;1801;51.050;6.246;2022-11-25T04:30:21;12.13;;;2.30;;
3573;SDS011;1801;51.050;6.246;2022-11-25T04:32:46;6.60;;;2.00;;
3573;SDS011;1801;51.050;6.246;2022-11-25T04:35:11;8.87;;;1.83;;
3573;SDS011;1801;51.050;6.246;2022-11-25T04:37:36;22.43;;;3.00;;
3573;SDS011;1801;51.050;6.246;2022-11-25T04:40:02;10.93;;;2.77;;
3573;SDS011;1801;51.050;6.246;2022-11-25T04:42:27;15.50;;;2.50;;
3573;SDS011;1801;51.050;6.246;2022-11-25T04:44:55;9.57;;;2.85;;
3573;SDS011;1801;51.050;6.246;2022-11-25T04:47:21;11.33;;;2.80;;
3573;SDS011;1801;51.050;6.246;2022-11-25T04:49:46;10.37;;;2.63;;
3573;SDS011;1801;51.050;6.246;2022-11-25T04:52:12;13.43;;;3.00;;
3573;SDS011;1801;51.050;6.246;2022-11-25T04:54:37;14.93;;;2.77;;
3573;SDS011;1801;51.050;6.246;2022-11-25T04:57:02;14.50;;;4.13;;
3573;SDS011;1801;51.050;6.246;2022-11-25T04:59:28;13.80;;;3.70;;
3573;SDS011;1801;51.050;6.246;2022-11-25T05:04:43;7.82;;;2.60;;
3573;SDS011;1801;51.050;6.246;2022-11-25T05:07:09;11.10;;;2.85;;
3573;SDS011;1801;51.050;6.246;2022-11-25T05:09:35;7.43;;;2.50;;
3573;SDS011;1801;51.050;6.246;2022-11-25T05:12:00;19.47;;;3.70;;
3573;SDS011;1801;51.050;6.246;2022-11-25T05:14:26;15.23;;;3.30;;
3573;SDS011;1801;51.050;6.246;2022-11-25T05:16:51;11.83;;;3.00;;
3573;SDS011;1801;51.050;6.246;2022-11-25T05:19:17;9.00;;;3.00;;
3573;SDS011;1801;51.050;6.246;2022-11-25T05:21:42;24.13;;;5.90;;
3573;SDS011;1801;51.050;6.246;2022-11-25T05:24:07;19.63;;;4.07;;
3573;SDS011;1801;51.050;6.246;2022-11-25T05:26:32;8.37;;;2.93;;
3573;SDS011;1801;51.050;6.246;2022-11-25T05:28:58;13.03;;;3.27;;
3573;SDS011;1801;51.050;6.246;2022-11-25T05:31:23;19.63;;;3.73;;
3573;SDS011;1801;51.050;6.246;2022-11-25T05:33:48;10.17;;;3.73;;
3573;SDS011;1801;51.050;6.246;2022-11-25T05:36:13;11.90;;;3.33;;
3573;SDS011;1801;51.050;6.246;2022-11-25T05:38:39;24.23;;;4.17;;
3573;SDS011;1801;51.050;6.246;2022-11-25T05:41:05;14.03;;;3.87;;
3573;SDS011;1801;51.050;6.246;2022-11-25T05:43:30;9.77;;;3.20;;
3573;SDS011;1801;51.050;6.246;2022-11-25T05:45:56;9.87;;;2.57;;
3573;SDS011;1801;51.050;6.246;2022-11-25T05:48:21;12.50;;;2.57;;
3573;SDS011;1801;51.050;6.246;2022-11-25T05:50:46;25.37;;;3.47;;
3573;SDS011;1801;51.050;6.246;2022-11-25T05:53:11;11.30;;;2.60;;
3573;SDS011;1801;51.050;6.246;2022-11-25T05:55:38;14.45;;;3.95;;
3573;SDS011;1801;51.050;6.246;2022-11-25T05:58:03;12.70;;;3.70;;
3573;SDS011;1801;51.050;6.246;2022-11-25T06:00:30;11.50;;;3.45;;
3573;SDS011;1801;51.050;6.246;2022-11-25T06:02:55;13.03;;;3.13;;
3573;SDS011;1801;51.050;6.246;2022-11-25T06:05:20;12.17;;;3.30;;
3573;SDS011;1801;51.050;6.246;2022-11-25T06:07:46;19.53;;;4.53;;
3573;SDS011;1801;51.050;6.246;2022-11-25T06:10:11;26.20;;;9.50;;
3573;SDS011;1801;51.050;6.246;2022-11-25T06:12:36;22.67;;;7.37;;
3573;SDS011;1801;51.050;6.246;2022-11-25T06:15:02;9.30;;;4.43;;
3573;SDS011;1801;51.050;6.246;2022-11-25T06:17:27;23.47;;;3.73;;
3573;SDS011;1801;51.050;6.246;2022-11-25T06:19:52;8.50;;;3.37;;
3573;SDS011;1801;51.050;6.246;2022-11-25T06:22:17;14.63;;;3.20;;
3573;SDS011;1801;51.050;6.246;2022-11-25T06:24:43;15.50;;;3.63;;
3573;SDS011;1801;51.050;6.246;2022-11-25T06:27:08;19.00;;;3.73;;
3573;SDS011;1801;51.050;6.246;2022-11-25T06:29:33;17.47;;;3.60;;
3573;SDS011;1801;51.050;6.246;2022-11-25T06:32:00;21.20;;;3.40;;
3573;SDS011;1801;51.050;6.246;2022-11-25T06:34:25;17.17;;;3.20;;
3573;SDS011;1801;51.050;6.246;2022-11-25T06:36:50;11.53;;;4.80;;
3573;SDS011;1801;51.050;6.246;2022-11-25T06:39:15;19.00;;;2.73;;
3573;SDS011;1801;51.050;6.246;2022-11-25T06:41:41;12.43;;;2.67;;
3573;SDS011;1801;51.050;6.246;2022-11-25T06:44:06;10.80;;;3.23;;
3573;SDS011;1801;51.050;6.246;2022-11-25T06:46:31;8.63;;;4.17;;
3573;SDS011;1801;51.050;6.246;2022-11-25T06:49:00;9.57;;;3.73;;
3573;SDS011;1801;51.050;6.246;2022-11-25T06:51:25;5.95;;;2.75;;
3573;SDS011;1801;51.050;6.246;2022-11-25T06:53:51;6.33;;;2.70;;
3573;SDS011;1801;51.050;6.246;2022-11-25T06:56:17;9.60;;;2.80;;
3573;SDS011;1801;51.050;6.246;2022-11-25T06:58:43;7.97;;;2.55;;
3573;SDS011;1801;51.050;6.246;2022-11-25T07:03:44;15.45;;;2.45;;
3573;SDS011;1801;51.050;6.246;2022-11-25T07:06:13;9.93;;;2.40;;
3573;SDS011;1801;51.050;6.246;2022-11-25T07:08:39;7.35;;;2.97;;
3573;SDS011;1801;51.050;6.246;2022-11-25T07:11:06;8.57;;;2.30;;
3573;SDS011;1801;51.050;6.246;2022-11-25T07:13:31;13.57;;;3.10;;
3573;SDS011;1801;51.050;6.246;2022-11-25T07:15:59;12.53;;;3.83;;
3573;SDS011;1801;51.050;6.246;2022-11-25T07:18:24;12.07;;;3.05;;
3573;SDS011;1801;51.050;6.246;2022-11-25T07:20:49;11.00;;;2.70;;
3573;SDS011;1801;51.050;6.246;2022-11-25T07:23:14;7.93;;;2.30;;
3573;SDS011;1801;51.050;6.246;2022-11-25T07:25:40;7.80;;;2.83;;
3573;SDS011;1801;51.050;6.246;2022-11-25T07:28:05;8.40;;;3.10;;
3573;SDS011;1801;51.050;6.246;2022-11-25T07:30:30;9.20;;;2.80;;
3573;SDS011;1801;51.050;6.246;2022-11-25T07:32:55;13.10;;;3.07;;
3573;SDS011;1801;51.050;6.246;2022-11-25T07:35:20;13.33;;;4.20;;
3573;SDS011;1801;51.050;6.246;2022-11-25T07:37:46;9.40;;;3.47;;
3573;SDS011;1801;51.050;6.246;2022-11-25T07:40:11;11.60;;;3.10;;
3573;SDS011;1801;51.050;6.246;2022-11-25T07:42:36;10.37;;;2.57;;
3573;SDS011;1801;51.050;6.246;2022-11-25T07:45:02;17.07;;;3.43;;
3573;SDS011;1801;51.050;6.246;2022-11-25T07:47:27;8.23;;;3.80;;
3573;SDS011;1801;51.050;6.246;2022-11-25T07:49:52;8.80;;;3.50;;
3573;SDS011;1801;51.050;6.246;2022-11-25T07:52:17;6.00;;;3.00;;
3573;SDS011;1801;51.050;6.246;2022-11-25T07:54:44;9.13;;;3.00;;
3573;SDS011;1801;51.050;6.246;2022-11-25T07:57:09;12.03;;;3.30;;
3573;SDS011;1801;51.050;6.246;2022-11-25T07:59:34;7.90;;;2.90;;
3573;SDS011;1801;51.050;6.246;2022-11-25T08:02:00;6.37;;;3.00;;
3573;SDS011;1801;51.050;6.246;2022-11-25T08:04:25;9.23;;;3.13;;
3573;SDS011;1801;51.050;6.246;2022-11-25T08:06:50;7.70;;;2.50;;
3573;SDS011;1801;51.050;6.246;2022-11-25T08:09:17;6.33;;;2.33;;
3573;SDS011;1801;51.050;6.246;2022-11-25T08:11:43;13.70;;;3.10;;
3573;SDS011;1801;51.050;6.246;2022-11-25T08:14:08;9.40;;;2.60;;
3573;SDS011;1801;51.050;6.246;2022-11-25T08:16:34;9.50;;;3.00;;
3573;SDS011;1801;51.050;6.246;2022-11-25T08:19:00;3.70;;;2.60;;
3573;SDS011;1801;51.050;6.246;2022-11-25T08:21:25;7.03;;;2.35;;
3573;SDS011;1801;51.050;6.246;2022-11-25T08:23:51;4.90;;;2.63;;
3573;SDS011;1801;51.050;6.246;2022-11-25T08:26:23;6.93;;;3.43;;
3573;SDS011;1801;51.050;6.246;2022-11-25T08:28:54;8.30;;;2.60;;
3573;SDS011;1801;51.050;6.246;2022-11-25T08:31:24;7.60;;;2.53;;
3573;SDS011;1801;51.050;6.246;2022-11-25T08:33:50;5.32;;;2.70;;
3573;SDS011;1801;51.050;6.246;2022-11-25T08:36:15;11.20;;;3.60;;
3573;SDS011;1801;51.050;6.246;2022-11-25T08:38:41;10.60;;;3.37;;
3573;SDS011;1801;51.050;6.246;2022-11-25T08:41:14;12.20;;;3.43;;
3573;SDS011;1801;51.050;6.246;2022-11-25T08:43:40;8.00;;;3.25;;
3573;SDS011;1801;51.050;6.246;2022-11-25T08:46:09;14.97;;;2.37;;
3573;SDS011;1801;51.050;6.246;2022-11-25T08:48:34;12.70;;;2.37;;
3573;SDS011;1801;51.050;6.246;2022-11-25T08:51:00;7.10;;;2.80;;
3573;SDS011;1801;51.050;6.246;2022-11-25T08:53:25;5.83;;;2.47;;
3573;SDS011;1801;51.050;6.246;2022-11-25T08:55:50;15.87;;;2.40;;
3573;SDS011;1801;51.050;6.246;2022-11-25T08:58:15;6.93;;;2.80;;
3573;SDS011;1801;51.050;6.246;2022-11-25T09:00:41;10.97;;;3.20;;
3573;SDS011;1801;51.050;6.246;2022-11-25T09:03:07;11.77;;;2.73;;
3573;SDS011;1801;51.050;6.246;2022-11-25T09:05:32;17.50;;;3.70;;
3573;SDS011;1801;51.050;6.246;2022-11-25T09:08:03;6.03;;;2.67;;
3573;SDS011;1801;51.050;6.246;2022-11-25T09:10:28;17.33;;;2.80;;
3573;SDS011;1801;51.050;6.246;2022-11-25T09:12:54;15.47;;;2.70;;
3573;SDS011;1801;51.050;6.246;2022-11-25T09:15:19;6.80;;;2.40;;
3573;SDS011;1801;51.050;6.246;2022-11-25T09:17:45;5.70;;;2.63;;
3573;SDS011;1801;51.050;6.246;2022-11-25T09:20:10;8.50;;;3.20;;
3573;SDS011;1801;51.050;6.246;2022-11-25T09:22:35;9.93;;;2.97;;
3573;SDS011;1801;51.050;6.246;2022-11-25T09:25:00;11.13;;;2.47;;
3573;SDS011;1801;51.050;6.246;2022-11-25T09:27:26;7.30;;;2.90;;
3573;SDS011;1801;51.050;6.246;2022-11-25T09:29:51;13.50;;;2.90;;
3573;SDS011;1801;51.050;6.246;2022-11-25T09:32:16;13.53;;;2.97;;
3573;SDS011;1801;51.050;6.246;2022-11-25T09:34:41;7.90;;;3.47;;
3573;SDS011;1801;51.050;6.246;2022-11-25T09:37:06;10.63;;;3.60;;
3573;SDS011;1801;51.050;6.246;2022-11-25T09:39:31;14.87;;;3.30;;
3573;SDS011;1801;51.050;6.246;2022-11-25T09:42:05;7.83;;;3.30;;
3573;SDS011;1801;51.050;6.246;2022-11-25T09:45:05;15.00;;;2.97;;
3573;SDS011;1801;51.050;6.246;2022-11-25T09:53:23;12.07;;;3.23;;
3573;SDS011;1801;51.050;6.246;2022-11-25T09:55:53;15.50;;;2.97;;
3573;SDS011;1801;51.050;6.246;2022-11-25T09:58:28;10.57;;;3.00;;
3573;SDS011;1801;51.050;6.246;2022-11-25T10:00:54;12.43;;;2.50;;
3573;SDS011;1801;51.050;6.246;2022-11-25T10:03:25;10.73;;;2.53;;
3573;SDS011;1801;51.050;6.246;2022-11-25T10:08:22;11.13;;;4.03;;
3573;SDS011;1801;51.050;6.246;2022-11-25T10:10:49;9.73;;;2.70;;
3573;SDS011;1801;51.050;6.246;2022-11-25T10:13:30;10.43;;;2.50;;
3573;SDS011;1801;51.050;6.246;2022-11-25T10:15:56;9.37;;;3.40;;
3573;SDS011;1801;51.050;6.246;2022-11-25T10:18:30;10.20;;;3.00;;
3573;SDS011;1801;51.050;6.246;2022-11-25T10:20:57;11.83;;;2.87;;
3573;SDS011;1801;51.050;6.246;2022-11-25T10:23:26;15.00;;;4.60;;
3573;SDS011;1801;51.050;6.246;2022-11-25T10:25:56;5.90;;;3.23;;
3573;SDS011;1801;51.050;6.246;2022-11-25T10:28:24;16.33;;;4.53;;
3573;SDS011;1801;51.050;6.246;2022-11-25T10:31:05;19.37;;;4.03;;
3573;SDS011;1801;51.050;6.246;2022-11-25T10:33:46;13.73;;;3.13;;
3573;SDS011;1801;51.050;6.246;2022-11-25T10:41:15;15.40;;;3.67;;
3573;SDS011;1801;51.050;6.246;2022-11-25T10:43:41;10.93;;;3.13;;
3573;SDS011;1801;51.050;6.246;2022-11-25T10:46:09;15.73;;;3.10;;
3573;SDS011;1801;51.050;6.246;2022-11-25T10:51:20;10.68;;;3.20;;
3573;SDS011;1801;51.050;6.246;2022-11-25T10:54:13;16.93;;;4.80;;
3573;SDS011;1801;51.050;6.246;2022-11-25T10:56:47;10.50;;;3.20;;
3573;SDS011;1801;51.050;6.246;2022-11-25T10:59:31;12.43;;;4.23;;
3573;SDS011;1801;51.050;6.246;2022-11-25T11:02:12;10.90;;;3.60;;
3573;SDS011;1801;51.050;6.246;2022-11-25T11:04:50;15.83;;;4.67;;
3573;SDS011;1801;51.050;6.246;2022-11-25T11:07:16;10.83;;;3.10;;
3573;SDS011;1801;51.050;6.246;2022-11-25T11:09:41;11.87;;;3.90;;
3573;SDS011;1801;51.050;6.246;2022-11-25T11:12:26;14.70;;;3.27;;
3573;SDS011;1801;51.050;6.246;2022-11-25T11:14:53;16.07;;;4.20;;
3573;SDS011;1801;51.050;6.246;2022-11-25T11:22:30;14.77;;;3.07;;
3573;SDS011;1801;51.050;6.246;2022-11-25T11:25:04;23.90;;;4.93;;
3573;SDS011;1801;51.050;6.246;2022-11-25T11:27:29;9.43;;;3.90;;
3573;SDS011;1801;51.050;6.246;2022-11-25T11:30:09;14.50;;;3.97;;
3573;SDS011;1801;51.050;6.246;2022-11-25T11:32:36;11.33;;;3.47;;
3573;SDS011;1801;51.050;6.246;2022-11-25T11:37:40;15.60;;;3.63;;
3573;SDS011;1801;51.050;6.246;2022-11-25T11:42:59;6.07;;;2.70;;
3573;SDS011;1801;51.050;6.246;2022-11-25T11:45:33;9.90;;;3.50;;
3573;SDS011;1801;51.050;6.246;2022-11-25T11:50:42;13.33;;;3.50;;
3573;SDS011;1801;51.050;6.246;2022-11-25T11:58:13;26.73;;;3.47;;
3573;SDS011;1801;51.050;6.246;2022-11-25T12:00:44;12.93;;;2.77;;
3573;SDS011;1801;51.050;6.246;2022-11-25T12:03:13;15.97;;;3.30;;
3573;SDS011;1801;51.050;6.246;2022-11-25T12:05:40;14.93;;;2.87;;
3573;SDS011;1801;51.050;6.246;2022-11-25T12:08:10;8.90;;;2.33;;
3573;SDS011;1801;51.050;6.246;2022-11-25T12:10:39;7.23;;;2.60;;
3573;SDS011;1801;51.050;6.246;2022-11-25T12:15:42;15.17;;;4.73;;
3573;SDS011;1801;51.050;6.246;2022-11-25T12:18:23;5.23;;;2.30;;
3573;SDS011;1801;51.050;6.246;2022-11-25T12:20:56;8.17;;;2.80;;
3573;SDS011;1801;51.050;6.246;2022-11-25T12:23:28;10.57;;;2.60;;
3573;SDS011;1801;51.050;6.246;2022-11-25T12:26:00;11.53;;;3.43;;
3573;SDS011;1801;51.050;6.246;2022-11-25T12:28:33;7.33;;;2.20;;
3573;SDS011;1801;51.050;6.246;2022-11-25T12:34:04;9.80;;;3.00;;
3573;SDS011;1801;51.050;6.246;2022-11-25T12:36:33;6.57;;;3.23;;
3573;SDS011;1801;51.050;6.246;2022-11-25T12:39:00;9.60;;;3.03;;
3573;SDS011;1801;51.050;6.246;2022-11-25T12:46:34;8.43;;;2.60;;
3573;SDS011;1801;51.050;6.246;2022-11-25T12:49:00;10.20;;;2.57;;
3573;SDS011;1801;51.050;6.246;2022-11-25T12:51:31;8.10;;;2.70;;
3573;SDS011;1801;51.050;6.246;2022-11-25T12:54:34;11.13;;;2.20;;
3573;SDS011;1801;51.050;6.246;2022-11-25T12:59:34;4.60;;;1.80;;
3573;SDS011;1801;51.050;6.246;2022-11-25T13:02:19;10.53;;;2.13;;
3573;SDS011;1801;51.050;6.246;2022-11-25T13:17:40;12.80;;;3.33;;
3573;SDS011;1801;51.050;6.246;2022-11-25T13:23:01;8.37;;;3.47;;
3573;SDS011;1801;51.050;6.246;2022-11-25T13:25:27;13.23;;;2.40;;
3573;SDS011;1801;51.050;6.246;2022-11-25T13:32:56;6.93;;;2.60;;
3573;SDS011;1801;51.050;6.246;2022-11-25T13:37:49;7.43;;;3.63;;
3573;SDS011;1801;51.050;6.246;2022-11-25T13:42:55;7.70;;;2.73;;
3573;SDS011;1801;51.050;6.246;2022-11-25T13:47:52;5.20;;;3.10;;
3573;SDS011;1801;51.050;6.246;2022-11-25T13:50:21;9.97;;;2.00;;
3573;SDS011;1801;51.050;6.246;2022-11-25T13:52:48;6.30;;;2.60;;
3573;SDS011;1801;51.050;6.246;2022-11-25T13:57:39;5.10;;;2.20;;
3573;SDS011;1801;51.050;6.246;2022-11-25T14:02:43;6.40;;;2.33;;
3573;SDS011;1801;51.050;6.246;2022-11-25T14:10:55;5.37;;;2.07;;
3573;SDS011;1801;51.050;6.246;2022-11-25T14:16:11;15.90;;;2.73;;
3573;SDS011;1801;51.050;6.246;2022-11-25T14:18:53;7.20;;;2.30;;
3573;SDS011;1801;51.050;6.246;2022-11-25T14:24:10;13.00;;;3.00;;
3573;SDS011;1801;51.050;6.246;2022-11-25T14:26:39;15.37;;;2.80;;
3573;SDS011;1801;51.050;6.246;2022-11-25T14:29:11;13.30;;;3.63;;
3573;SDS011;1801;51.050;6.246;2022-11-25T14:31:40;6.30;;;3.00;;
3573;SDS011;1801;51.050;6.246;2022-11-25T14:34:14;12.00;;;2.77;;
3573;SDS011;1801;51.050;6.246;2022-11-25T14:36:42;14.47;;;2.90;;
3573;SDS011;1801;51.050;6.246;2022-11-25T14:39:10;11.27;;;2.30;;
3573;SDS011;1801;51.050;6.246;2022-11-25T14:42:12;9.07;;;3.20;;
3573;SDS011;1801;51.050;6.246;2022-11-25T14:44:43;4.10;;;2.20;;
3573;SDS011;1801;51.050;6.246;2022-11-25T14:47:09;9.73;;;2.60;;
3573;SDS011;1801;51.050;6.246;2022-11-25T14:49:44;10.30;;;2.27;;
3573;SDS011;1801;51.050;6.246;2022-11-25T14:52:14;6.97;;;2.37;;
3573;SDS011;1801;51.050;6.246;2022-11-25T14:54:40;9.47;;;2.80;;
3573;SDS011;1801;51.050;6.246;2022-11-25T14:57:06;12.77;;;3.07;;
3573;SDS011;1801;51.050;6.246;2022-11-25T14:59:31;8.90;;;3.80;;
3573;SDS011;1801;51.050;6.246;2022-11-25T15:01:57;10.70;;;2.47;;
3573;SDS011;1801;51.050;6.246;2022-11-25T15:04:23;9.57;;;3.17;;
3573;SDS011;1801;51.050;6.246;2022-11-25T15:06:52;10.27;;;2.40;;
3573;SDS011;1801;51.050;6.246;2022-11-25T15:09:20;13.47;;;2.73;;
3573;SDS011;1801;51.050;6.246;2022-11-25T15:11:46;16.60;;;3.30;;
3573;SDS011;1801;51.050;6.246;2022-11-25T15:14:14;7.33;;;2.63;;
3573;SDS011;1801;51.050;6.246;2022-11-25T15:16:42;17.47;;;2.80;;
3573;SDS011;1801;51.050;6.246;2022-11-25T15:19:15;11.87;;;2.27;;
3573;SDS011;1801;51.050;6.246;2022-11-25T15:21:41;8.90;;;2.10;;
3573;SDS011;1801;51.050;6.246;2022-11-25T15:24:19;10.27;;;3.00;;
3573;SDS011;1801;51.050;6.246;2022-11-25T15:26:49;3.87;;;2.03;;
3573;SDS011;1801;51.050;6.246;2022-11-25T15:29:15;7.87;;;2.53;;
3573;SDS011;1801;51.050;6.246;2022-11-25T15:31:40;4.93;;;2.00;;
3573;SDS011;1801;51.050;6.246;2022-11-25T15:34:06;8.60;;;2.30;;
3573;SDS011;1801;51.050;6.246;2022-11-25T15:36:34;11.30;;;2.60;;
3573;SDS011;1801;51.050;6.246;2022-11-25T15:41:37;4.80;;;2.20;;
3573;SDS011;1801;51.050;6.246;2022-11-25T15:44:05;8.00;;;2.30;;
3573;SDS011;1801;51.050;6.246;2022-11-25T15:46:31;6.77;;;1.90;;
3573;SDS011;1801;51.050;6.246;2022-11-25T15:48:58;4.20;;;2.40;;
3573;SDS011;1801;51.050;6.246;2022-11-25T15:51:32;12.37;;;2.30;;
3573;SDS011;1801;51.050;6.246;2022-11-25T15:54:03;10.70;;;2.28;;
3573;SDS011;1801;51.050;6.246;2022-11-25T15:56:29;8.03;;;2.40;;
3573;SDS011;1801;51.050;6.246;2022-11-25T15:58:56;6.10;;;2.43;;
3573;SDS011;1801;51.050;6.246;2022-11-25T16:01:21;6.43;;;2.13;;
3573;SDS011;1801;51.050;6.246;2022-11-25T16:03:47;7.70;;;2.70;;
3573;SDS011;1801;51.050;6.246;2022-11-25T16:06:21;9.63;;;4.20;;
3573;SDS011;1801;51.050;6.246;2022-11-25T16:08:56;6.23;;;2.57;;
3573;SDS011;1801;51.050;6.246;2022-11-25T16:11:22;7.20;;;3.13;;
3573;SDS011;1801;51.050;6.246;2022-11-25T16:13:50;11.17;;;3.30;;
3573;SDS011;1801;51.050;6.246;2022-11-25T16:16:20;4.43;;;1.95;;
3573;SDS011;1801;51.050;6.246;2022-11-25T16:21:27;6.77;;;2.57;;
3573;SDS011;1801;51.050;6.246;2022-11-25T16:24:10;11.68;;;3.78;;
3573;SDS011;1801;51.050;6.246;2022-11-25T16:26:37;8.93;;;3.30;;
3573;SDS011;1801;51.050;6.246;2022-11-25T16:31:58;11.02;;;4.82;;
3573;SDS011;1801;51.050;6.246;2022-11-25T16:34:24;8.07;;;3.08;;
3573;SDS011;1801;51.050;6.246;2022-11-25T16:36:50;16.93;;;3.30;;
3573;SDS011;1801;51.050;6.246;2022-11-25T16:39:15;5.70;;;3.10;;
3573;SDS011;1801;51.050;6.246;2022-11-25T16:41:41;8.67;;;3.60;;
3573;SDS011;1801;51.050;6.246;2022-11-25T16:44:17;8.33;;;3.20;;
3573;SDS011;1801;51.050;6.246;2022-11-25T16:46:43;6.53;;;3.00;;
3573;SDS011;1801;51.050;6.246;2022-11-25T16:49:15;17.83;;;4.20;;
3573;SDS011;1801;51.050;6.246;2022-11-25T16:51:40;9.63;;;3.57;;
3573;SDS011;1801;51.050;6.246;2022-11-25T16:54:06;9.30;;;2.73;;
3573;SDS011;1801;51.050;6.246;2022-11-25T16:56:32;7.53;;;3.07;;
3573;SDS011;1801;51.050;6.246;2022-11-25T16:58:58;9.83;;;3.00;;